Latest Weather Observations for Glen Innes Airport

IDN60801

Issued at 1:35 pm EST Sunday 21 September 2014 (issued every 30 minutes, with the page automatically refreshed every 10 minutes)

About weather observations | Map of weather stations | Latest weather observations for NSW | Other Formats
Station Details ID: 056243 Name: GLEN INNES AIRPORT AWS Lat: -29.68 Lon: 151.69 Height: 1044.3 m
Data from the previous 72 hours. | See also: Recent months for locations in New South Wales
Date/Time
EST
Temp
°C
App
Temp
°C
Dew
Point
Rel
Hum
%
Delta-T
°C
Wind Press
QNH
hPa
Press
MSL
hPa
Rain
since 9 am
mm
Dir
 
Spd
km/h
Gust
km/h
Spd
kts
Gust
kts
21/01:30pm 15.3 9.2 0.7 37 6.6 E 22 32 12 17 1026.2 1024.9 0.0
21/01:00pm 15.1 8.5 -0.6 34 6.9 E 24 33 13 18 1026.6 1025.2 0.0
21/12:30pm 15.0 8.4 -0.7 34 6.9 E 24 32 13 17 1026.9 1025.5 0.0
21/12:00pm 14.3 8.8 0.5 39 6.2 E 19 30 10 16 1027.1 1025.8 0.0
21/11:30am 13.3 6.9 1.0 43 5.6 ESE 24 32 13 17 1027.4 1026.0 0.0
21/11:00am 13.7 7.0 1.4 43 5.6 E 26 35 14 19 1027.1 1025.8 0.0
21/10:30am 13.3 5.6 -0.3 39 6.0 E 30 37 16 20 1027.9 1026.6 0.0
21/10:00am 12.1 4.7 -0.7 41 5.5 E 28 35 15 19 1028.3 1027.0 0.0
21/09:30am 13.1 6.5 2.1 47 5.1 E 26 35 14 19 1028.6 1027.2 0.0
21/09:00am 11.5 4.5 2.0 52 4.3 E 28 35 15 19 1028.3 1027.0 0.0
21/08:30am 10.0 3.6 0.9 53 4.0 E 24 32 13 17 1028.6 1027.2 0.0
21/08:00am 9.1 3.4 2.9 65 2.8 ESE 22 28 12 15 1028.2 1026.9 0.0
21/07:30am 6.3 1.0 1.6 72 2.0 E 19 24 10 13 1028.0 1026.7 0.0
21/07:00am 6.4 2.2 3.9 84 1.1 ESE 15 19 8 10 1027.5 1026.1 0.0
21/06:30am 4.7 0.5 4.0 95 0.3 E 15 17 8 9 1026.9 1025.5 0.0
21/06:00am 4.6 -0.4 3.6 93 0.4 ESE 19 22 10 12 1026.4 1025.0 0.0
21/05:30am 4.5 -0.7 3.5 93 0.4 SE 20 26 11 14 1026.2 1024.9 0.0
21/05:00am 4.5 -0.7 3.6 94 0.4 SE 20 26 11 14 1026.0 1024.6 0.0
21/04:30am 4.6 -1.0 3.7 94 0.4 SE 22 28 12 15 1025.6 1024.2 0.0
21/04:00am 4.2 -1.4 3.6 96 0.3 SE 22 28 12 15 1025.0 1023.6 0.0
21/03:30am 2.3 -1.9 1.6 95 0.3 SE 13 17 7 9 1025.4 1024.0 0.0
21/03:00am 2.8 -1.7 2.4 97 0.2 SE 15 17 8 9 1025.5 1024.1 0.0
21/02:30am 2.5 -1.4 1.3 92 0.5 SE 11 13 6 7 1025.8 1024.4 0.0
21/02:00am 3.0 -0.8 1.5 90 0.6 E 11 13 6 7 1026.1 1024.7 0.0
21/01:30am 4.3 -1.2 1.8 84 1.1 ESE 20 24 11 13 1026.1 1024.7 0.0
21/01:00am 5.2 -0.2 2.4 82 1.2 ESE 20 26 11 14 1026.4 1025.0 0.0
21/12:30am 4.5 -0.4 1.9 83 1.1 ESE 17 22 9 12 1026.5 1025.1 0.0
21/12:00am 5.1 -0.4 2.1 81 1.3 ESE 20 26 11 14 1026.4 1025.0 0.0
 
Date/Time
EST
Temp
°C
App
Temp
°C
Dew
Point
Rel
Hum
%
Delta-T
°C
Wind Press
QNH
hPa
Press
MSL
hPa
Rain
since 9 am
mm
Dir
 
Spd
km/h
Gust
km/h
Spd
kts
Gust
kts
20/11:30pm 3.8 -0.5 1.2 83 1.1 ESE 13 17 7 9 1026.5 1025.1 0.0
20/11:00pm 4.1 0.5 0.3 76 1.5 E 9 13 5 7 1026.6 1025.2 0.0
20/10:30pm 5.5 0.5 1.6 76 1.7 E 17 20 9 11 1026.2 1024.9 0.0
20/10:00pm 5.4 0.9 2.1 79 1.4 E 15 19 8 10 1026.1 1024.7 0.0
20/09:30pm 6.1 1.4 3.1 81 1.3 E 17 22 9 12 1025.7 1024.3 0.0
20/09:00pm 6.3 1.8 4.0 85 1.0 ESE 17 20 9 11 1025.7 1024.3 0.0
20/08:30pm 7.2 2.4 4.5 83 1.2 E 19 24 10 13 1025.4 1024.0 0.0
20/08:00pm 7.7 2.7 4.8 82 1.4 ESE 20 26 11 14 1025.1 1023.7 0.0
20/07:30pm 7.5 2.5 3.6 76 1.8 ESE 19 24 10 13 1024.8 1023.4 0.0
20/07:00pm 8.8 3.6 3.8 71 2.3 E 20 26 11 14 1024.5 1023.0 0.0
20/06:30pm 8.9 3.9 3.7 70 2.4 E 19 24 10 13 1023.7 1022.3 0.0
20/06:00pm 10.0 4.9 3.3 63 3.1 E 19 24 10 13 1023.3 1021.8 0.0
20/05:30pm 11.2 6.3 4.2 62 3.3 ENE 19 24 10 13 1022.9 1021.5 0.0
20/05:00pm 12.0 6.5 3.8 57 3.9 E 22 30 12 16 1022.2 1020.7 0.0
20/04:30pm 13.7 8.1 1.0 42 5.8 E 20 24 11 13 1021.6 1020.1 0.0
20/04:00pm 15.1 9.9 -0.2 35 6.8 ESE 17 24 9 13 1021.3 1019.8 0.0
20/03:30pm 14.6 8.9 -1.1 34 6.9 SE 19 22 10 12 1020.9 1019.4 0.0
20/03:00pm 15.9 11.2 -2.1 29 7.8 SSE 13 22 7 12 1020.9 1019.4 0.0
20/02:30pm 14.8 10.1 -2.1 31 7.2 NE 13 19 7 10 1020.9 1019.4 0.0
20/02:00pm 15.6 11.2 -2.3 29 7.7 SSE 11 19 6 10 1021.0 1019.5 0.0
20/01:30pm 15.9 11.5 0.5 35 7.0 SSE 13 20 7 11 1021.4 1019.9 0.0
20/01:00pm 15.0 10.8 -3.8 27 7.8 ESE 9 15 5 8 1021.5 1020.0 0.0
20/12:30pm 14.8 10.4 0.3 37 6.5 SSE 13 19 7 10 1021.9 1020.4 0.0
20/12:00pm 14.3 10.3 0.5 39 6.2 SSE 11 20 6 11 1022.3 1020.8 0.0
20/11:30am 14.5 11.6 2.4 44 5.7 N 7 11 4 6 1022.6 1021.1 0.0
20/11:00am 12.0 9.0 1.9 50 4.6 SW 7 11 4 6 1023.0 1021.6 0.0
20/10:30am 12.5 9.6 2.7 51 4.6 WSW 7 11 4 6 1023.3 1021.8 0.0
20/10:00am 11.8 8.9 2.5 53 4.3 SE 7 13 4 7 1023.4 1021.9 0.0
20/09:30am 11.5 8.3 3.3 57 3.8 SE 9 15 5 8 1023.6 1022.1 0.0
20/09:00am 10.9 6.7 3.9 62 3.3 E 15 20 8 11 1023.5 1022.0 0.0
20/08:30am 10.3 6.0 5.3 71 2.4 E 17 24 9 13 1023.5 1022.0 0.0
20/08:00am 8.8 4.5 5.4 79 1.6 ESE 17 22 9 12 1023.4 1021.9 0.0
20/07:30am 7.0 2.8 5.5 90 0.7 SE 17 20 9 11 1023.0 1021.6 0.0
20/07:00am 5.5 0.7 4.8 95 0.3 SE 19 22 10 12 1022.6 1021.1 0.0
20/06:30am 1.3 -2.7 0.6 95 0.3 ESE 11 13 6 7 1022.2 1020.7 0.0
20/06:00am -1.4 -6.6 -3.0 89 0.5 SSE 15 19 8 10 1022.0 1020.6 0.0
20/05:30am -1.2 -5.0 -3.7 83 0.8 E 7 11 4 6 1021.8 1020.3 0.0
20/05:00am -1.6 -5.9 -5.1 77 1.1 SE 9 11 5 6 1020.9 1019.4 0.0
20/04:30am -1.2 -5.1 -5.0 75 1.2 SE 7 9 4 5 1020.8 1019.3 0.0
20/04:00am -0.5 -4.7 -4.0 77 1.2 SE 9 13 5 7 1020.4 1018.9 0.0
20/03:30am -0.9 -5.4 -3.6 82 0.9 ESE 11 15 6 8 1020.3 1018.7 0.0
20/03:00am -1.6 -5.5 -4.9 78 1.0 SE 7 11 4 6 1020.2 1018.6 0.0
20/02:30am -1.5 -5.8 -5.2 76 1.2 SE 9 11 5 6 1020.3 1018.7 0.0
20/02:00am 1.2 -2.6 -3.5 71 1.7 E 7 11 4 6 1020.6 1019.1 0.0
20/01:30am 1.8 -2.3 -3.3 69 2.0 E 9 13 5 7 1020.6 1019.1 0.0
20/01:00am 2.8 -0.9 -2.7 67 2.0 SSE 7 9 4 5 1020.7 1019.2 0.0
20/12:30am 3.2 -0.8 -1.9 69 1.9 ESE 9 11 5 6 1020.7 1019.2 0.0
20/12:00am 4.0 1.7 -2.2 64 2.4 CALM 0 0 0 0 1021.2 1019.7 0.0
 
Date/Time
EST
Temp
°C
App
Temp
°C
Dew
Point
Rel
Hum
%
Delta-T
°C
Wind Press
QNH
hPa
Press
MSL
hPa
Rain
since 9 am
mm
Dir
 
Spd
km/h
Gust
km/h
Spd
kts
Gust
kts
19/11:30pm 4.9 2.2 -2.4 59 2.8 S 2 6 1 3 1021.5 1020.0 0.0
19/11:00pm 5.8 2.3 -2.8 54 3.3 S 6 7 3 4 1021.6 1020.1 0.0
19/10:30pm 5.3 2.6 -2.8 56 3.1 SSE 2 6 1 3 1021.8 1020.3 0.0
19/10:00pm 6.5 1.9 -4.0 47 3.9 W 11 15 6 8 1021.8 1020.3 0.0
19/09:30pm 7.5 3.3 -4.2 43 4.4 WNW 9 11 5 6 1021.8 1020.3 0.0
19/09:00pm 9.1 4.4 -5.2 36 5.4 W 11 15 6 8 1021.8 1020.3 0.0
19/08:30pm 9.5 4.4 -5.6 34 5.7 W 13 17 7 9 1021.8 1020.3 0.0
19/08:00pm 10.0 4.5 -5.5 33 5.8 W 15 19 8 10 1021.6 1020.1 0.0
19/07:30pm 10.5 4.1 -5.1 33 6.0 W 20 28 11 15 1021.3 1019.8 0.0
19/07:00pm 10.2 6.0 -4.2 36 5.6 WSW 9 13 5 7 1020.7 1019.2 0.0
19/06:30pm 10.9 5.9 -4.3 34 6.0 W 13 17 7 9 1020.3 1018.7 0.0
19/06:00pm 11.4 5.2 -4.7 32 6.3 W 19 26 10 14 1019.9 1018.4 0.0
19/05:30pm 11.6 5.5 -7.2 26 7.0 W 17 24 9 13 1019.4 1017.8 0.0
19/05:00pm 12.9 6.3 -6.6 25 7.4 W 20 28 11 15 1019.1 1017.5 0.0
19/04:30pm 15.4 9.9 -5.0 24 8.3 W 15 24 8 13 1018.7 1017.2 0.0
19/04:00pm 15.5 9.1 -7.3 20 8.8 WNW 19 28 10 15 1018.5 1016.9 0.0
19/03:30pm 15.8 9.9 -5.8 22 8.6 NW 17 30 9 16 1018.5 1016.9 0.0
19/03:00pm 15.9 8.3 -9.9 16 9.5 WNW 24 33 13 18 1018.4 1016.8 0.0
19/02:30pm 15.9 8.7 -9.1 17 9.3 NW 22 30 12 16 1018.6 1017.1 0.0
19/02:00pm 16.4 10.5 -6.0 21 9.0 W 17 22 9 12 1018.7 1017.2 0.0
19/01:30pm 16.3 9.7 -7.3 19 9.2 WNW 20 35 11 19 1019.3 1017.7 0.0
19/01:00pm 15.8 9.1 -7.7 19 9.0 WNW 20 28 11 15 1019.7 1018.2 0.0
19/12:30pm 14.9 8.0 -6.0 23 8.2 NNW 22 33 12 18 1020.0 1018.5 0.0
19/12:00pm 16.0 10.2 -4.5 24 8.4 W 17 26 9 14 1020.5 1019.0 0.0
19/11:30am 15.4 9.3 -4.0 26 8.0 NNW 19 32 10 17 1021.0 1019.5 0.0
19/11:00am 15.1 9.1 -6.4 22 8.4 W 17 22 9 12 1021.7 1020.2 0.0
19/10:30am 14.7 8.4 -5.6 24 8.1 NW 19 30 10 16 1021.8 1020.3 0.0
19/10:00am 13.4 7.9 -5.2 27 7.3 NW 15 22 8 12 1022.2 1020.7 0.0
19/09:30am 12.7 7.0 -4.0 31 6.7 NW 17 26 9 14 1022.4 1020.9 0.0
19/09:00am 11.7 7.4 -4.4 32 6.3 N 9 13 5 7 1022.6 1021.1 0.0
19/08:30am 10.4 7.2 -0.7 46 4.7 NNE 6 7 3 4 1022.6 1021.1 0.0
19/08:00am 7.3 3.3 -2.2 51 3.8 E 9 11 5 6 1022.5 1021.0 0.0
19/07:30am 5.3 2.5 -0.5 66 2.3 E 4 11 2 6 1022.5 1021.0 0.0
19/07:00am 1.8 -1.8 -2.0 76 1.4 ESE 7 9 4 5 1022.3 1020.8 0.0
19/06:30am -1.5 -6.5 -4.7 79 1.0 ESE 13 13 7 7 1021.9 1020.4 0.0
19/06:00am -3.0 -8.9 -5.8 81 0.8 ESE 17 19 9 10 1021.7 1020.2 0.0
19/05:30am -4.3 -10.3 -6.6 84 0.5 E 17 19 9 10 1021.3 1019.8 0.0
19/05:00am -4.1 -8.9 -5.9 87 0.4 E 11 13 6 7 1020.8 1019.3 0.0
19/04:30am -4.5 -9.7 -6.5 86 0.4 E 13 17 7 9 1020.7 1019.2 0.0
19/04:00am -5.1 -10.4 -7.2 85 0.4 ESE 13 17 7 9 1020.7 1019.2 0.0
19/03:30am -5.0 -9.9 -7.0 86 0.4 ESE 11 13 6 7 1020.7 1019.2 0.0
19/03:00am -4.8 -9.3 -6.9 85 0.4 ESE 9 11 5 6 1020.7 1019.2 0.0
19/02:30am -4.9 -9.4 -7.2 84 0.5 SE 9 11 5 6 1020.7 1019.2 0.0
19/02:00am -3.7 -7.5 -5.8 85 0.5 SE 6 7 3 4 1020.9 1019.4 0.0
19/01:30am -3.9 -7.9 -5.6 88 0.4 E 7 11 4 6 1021.2 1019.7 0.0
19/01:00am -4.3 -9.2 -6.6 84 0.5 ESE 11 13 6 7 1021.5 1020.0 0.0
19/12:30am -3.6 -8.8 -6.2 82 0.7 E 13 13 7 7 1021.7 1020.2 0.0
19/12:00am -3.1 -7.5 -5.7 82 0.7 ESE 9 11 5 6 1021.7 1020.2 0.0
 
Date/Time
EST
Temp
°C
App
Temp
°C
Dew
Point
Rel
Hum
%
Delta-T
°C
Wind Press
QNH
hPa
Press
MSL
hPa
Rain
since 9 am
mm
Dir
 
Spd
km/h
Gust
km/h
Spd
kts
Gust
kts
18/11:30pm -2.8 -7.2 -5.8 80 0.8 SE 9 11 5 6 1021.9 1020.4 0.0
18/11:00pm -1.4 -6.1 -4.9 77 1.1 SE 11 11 6 6 1022.0 1020.6 0.0
18/10:30pm -1.2 -5.6 -6.0 70 1.5 SSE 9 11 5 6 1022.3 1020.8 0.0
18/10:00pm -1.1 -5.2 -6.6 66 1.7 SSE 7 9 4 5 1022.4 1020.9 0.0
18/09:30pm 0.4 -3.6 -5.4 65 2.0 E 7 9 4 5 1022.2 1020.7 0.0
18/09:00pm 2.5 -1.2 -4.9 58 2.7 ESE 6 7 3 4 1021.9 1020.4 0.0
18/08:30pm 2.6 -1.4 -5.8 54 3.0 SSW 7 11 4 6 1021.9 1020.4 0.0
18/08:27pm 3.0 -1.5 -6.4 50 3.4 SSW 9 11 5 6 1021.8 1020.3 0.0
18/08:00pm 8.2 3.8 -6.3 35 5.2 SSW 9 11 5 6 1021.7 1020.2 0.0
18/07:30pm 8.5 4.4 -6.4 34 5.4 SSW 7 11 4 6 1021.4 1019.9 0.0
18/07:00pm 6.4 2.7 -4.1 47 3.9 SSW 6 9 3 5 1021.2 1019.7 0.0
18/06:30pm 8.2 3.5 -5.3 38 5.0 SW 11 13 6 7 1020.8 1019.3 0.0
18/06:00pm 9.7 4.6 -5.4 34 5.7 WSW 13 15 7 8 1020.3 1018.7 0.0
18/05:30pm 12.0 6.5 -5.0 30 6.6 WSW 15 20 8 11 1019.7 1018.2 0.0
18/05:00pm 13.9 7.3 -6.9 23 7.9 SW 20 24 11 13 1019.3 1017.7 0.0
18/04:30pm 14.8 7.8 -7.3 21 8.5 WSW 22 30 12 16 1019.1 1017.5 0.0
18/04:00pm 15.4 8.6 -5.6 23 8.4 WSW 22 32 12 17 1018.8 1017.3 0.0
18/03:30pm 15.3 8.1 -5.7 23 8.4 W 24 33 13 18 1018.9 1017.4 0.0
18/03:00pm 15.7 8.6 -4.8 24 8.4 WSW 24 37 13 20 1018.8 1017.3 0.0
18/02:30pm 15.7 9.0 -4.2 25 8.2 WSW 22 35 12 19 1018.8 1017.3 0.0
18/02:00pm 15.8 9.9 -2.6 28 7.9 WSW 19 28 10 15 1018.9 1017.4 0.0

Other Formats:

Comma delimited format used in spreadsheet applications
http://www.bom.gov.au/fwo/IDN60801/IDN60801.94588.axf

JavaScript Object Notation format (JSON) in row-major order
http://www.bom.gov.au/fwo/IDN60801/IDN60801.94588.json